sensor_id;sensor_type;location;lat;lon;timestamp;pressure;altitude;pressure_sealevel;temperature;humidity
60697;BME280;46536;54.376;19.858;2022-11-11T06:12:43;102426.36;;;12.06;72.59
60697;BME280;46536;54.376;19.858;2022-11-11T06:15:51;102431.42;;;12.06;72.47
60697;BME280;46536;54.376;19.858;2022-11-11T06:18:39;102429.14;;;12.06;72.52
60697;BME280;46536;54.376;19.858;2022-11-11T06:21:27;102426.92;;;12.04;72.46
60697;BME280;46536;54.376;19.858;2022-11-11T06:24:14;102431.64;;;12.04;72.39
60697;BME280;46536;54.376;19.858;2022-11-11T06:27:03;102437.23;;;12.02;72.58
60697;BME280;46536;54.376;19.858;2022-11-11T06:29:51;102433.56;;;12.03;72.54
60697;BME280;46536;54.376;19.858;2022-11-11T06:32:38;102436.73;;;12.01;72.55
60697;BME280;46536;54.376;19.858;2022-11-11T06:35:26;102442.73;;;12.06;72.57
60697;BME280;46536;54.376;19.858;2022-11-11T06:38:14;102442.17;;;12.09;72.44
60697;BME280;46536;54.376;19.858;2022-11-11T06:41:01;102441.45;;;12.10;72.48
60697;BME280;46536;54.376;19.858;2022-11-11T06:43:49;102445.48;;;12.09;72.38
60697;BME280;46536;54.376;19.858;2022-11-11T06:46:36;102444.61;;;12.09;72.44
60697;BME280;46536;54.376;19.858;2022-11-11T06:49:24;102446.67;;;12.11;72.35
60697;BME280;46536;54.376;19.858;2022-11-11T06:52:11;102456.06;;;12.12;72.36
60697;BME280;46536;54.376;19.858;2022-11-11T06:54:59;102456.91;;;12.13;72.32
60697;BME280;46536;54.376;19.858;2022-11-11T06:57:46;102467.34;;;12.15;72.24
60697;BME280;46536;54.376;19.858;2022-11-11T07:00:35;102464.04;;;12.15;72.17
60697;BME280;46536;54.376;19.858;2022-11-11T07:03:22;102471.87;;;12.15;72.18
60697;BME280;46536;54.376;19.858;2022-11-11T07:06:12;102475.02;;;12.14;72.18
60697;BME280;46536;54.376;19.858;2022-11-11T07:08:59;102476.39;;;12.17;72.16
60697;BME280;46536;54.376;19.858;2022-11-11T07:11:47;102484.54;;;12.19;72.12
60697;BME280;46536;54.376;19.858;2022-11-11T07:14:35;102485.39;;;12.20;72.00
60697;BME280;46536;54.376;19.858;2022-11-11T07:17:22;102478.56;;;12.22;72.09
60697;BME280;46536;54.376;19.858;2022-11-11T07:20:10;102484.23;;;12.26;72.11
60697;BME280;46536;54.376;19.858;2022-11-11T07:22:58;102488.52;;;12.31;71.96
60697;BME280;46536;54.376;19.858;2022-11-11T07:25:45;102495.27;;;12.35;71.86
60697;BME280;46536;54.376;19.858;2022-11-11T07:28:33;102501.85;;;12.37;71.70
60697;BME280;46536;54.376;19.858;2022-11-11T07:31:22;102502.55;;;12.37;71.58
60697;BME280;46536;54.376;19.858;2022-11-11T07:34:10;102499.20;;;12.40;71.54
60697;BME280;46536;54.376;19.858;2022-11-11T07:36:57;102490.98;;;12.41;71.51
60697;BME280;46536;54.376;19.858;2022-11-11T07:39:45;102484.48;;;12.44;71.49
60697;BME280;46536;54.376;19.858;2022-11-11T07:42:40;102477.48;;;12.45;71.28
60697;BME280;46536;54.376;19.858;2022-11-11T07:45:29;102466.02;;;12.45;71.26
60697;BME280;46536;54.376;19.858;2022-11-11T07:48:16;102470.50;;;12.46;71.33
60697;BME280;46536;54.376;19.858;2022-11-11T07:51:05;102466.78;;;12.51;71.22
60697;BME280;46536;54.376;19.858;2022-11-11T07:53:53;102474.75;;;12.54;71.19
60697;BME280;46536;54.376;19.858;2022-11-11T07:56:44;102473.30;;;12.56;71.15
60697;BME280;46536;54.376;19.858;2022-11-11T07:59:35;102485.08;;;12.61;71.13
60697;BME280;46536;54.376;19.858;2022-11-11T08:02:23;102486.94;;;12.64;71.05
60697;BME280;46536;54.376;19.858;2022-11-11T08:05:11;102488.63;;;12.69;70.99
60697;BME280;46536;54.376;19.858;2022-11-11T08:08:09;102499.56;;;12.71;70.86
60697;BME280;46536;54.376;19.858;2022-11-11T08:10:58;102491.72;;;12.71;70.78
60697;BME280;46536;54.376;19.858;2022-11-11T08:26:30;102486.62;;;12.84;70.46
60697;BME280;46536;54.376;19.858;2022-11-11T08:29:19;102483.45;;;12.85;70.45
60697;BME280;46536;54.376;19.858;2022-11-11T08:32:06;102491.83;;;12.85;70.42
60697;BME280;46536;54.376;19.858;2022-11-11T08:34:54;102493.05;;;12.84;70.41
60697;BME280;46536;54.376;19.858;2022-11-11T08:37:42;102487.99;;;12.85;70.47
60697;BME280;46536;54.376;19.858;2022-11-11T08:40:29;102488.14;;;12.87;70.56
60697;BME280;46536;54.376;19.858;2022-11-11T08:43:18;102479.92;;;12.87;70.42
60697;BME280;46536;54.376;19.858;2022-11-11T08:46:08;102483.90;;;12.89;70.32
60697;BME280;46536;54.376;19.858;2022-11-11T08:48:55;102486.67;;;12.90;70.26
60697;BME280;46536;54.376;19.858;2022-11-11T08:51:44;102494.86;;;12.91;70.27
60697;BME280;46536;54.376;19.858;2022-11-11T08:54:36;102498.10;;;12.94;70.23
60697;BME280;46536;54.376;19.858;2022-11-11T08:57:27;102505.19;;;12.98;70.25
60697;BME280;46536;54.376;19.858;2022-11-11T09:00:38;102506.91;;;12.99;70.04
60697;BME280;46536;54.376;19.858;2022-11-11T09:03:29;102496.08;;;13.00;69.90
60697;BME280;46536;54.376;19.858;2022-11-11T09:06:18;102493.76;;;13.04;70.04
60697;BME280;46536;54.376;19.858;2022-11-11T09:09:06;102497.67;;;13.09;69.98
60697;BME280;46536;54.376;19.858;2022-11-11T09:11:53;102499.67;;;13.13;69.84
60697;BME280;46536;54.376;19.858;2022-11-11T09:14:43;102506.58;;;13.16;69.75
60697;BME280;46536;54.376;19.858;2022-11-11T09:17:32;102507.10;;;13.19;69.57
60697;BME280;46536;54.376;19.858;2022-11-11T09:20:21;102500.44;;;13.21;69.43
60697;BME280;46536;54.376;19.858;2022-11-11T09:23:11;102503.21;;;13.22;69.27
60697;BME280;46536;54.376;19.858;2022-11-11T09:26:00;102507.02;;;13.24;69.15
60697;BME280;46536;54.376;19.858;2022-11-11T09:28:50;102509.60;;;13.26;69.21
60697;BME280;46536;54.376;19.858;2022-11-11T09:31:38;102514.44;;;13.28;69.12
60697;BME280;46536;54.376;19.858;2022-11-11T09:34:32;102508.48;;;13.29;69.00
60697;BME280;46536;54.376;19.858;2022-11-11T09:37:21;102506.55;;;13.30;68.83
60697;BME280;46536;54.376;19.858;2022-11-11T09:40:21;102508.34;;;13.28;68.81
60697;BME280;46536;54.376;19.858;2022-11-11T09:43:27;102514.27;;;13.28;68.78
60697;BME280;46536;54.376;19.858;2022-11-11T09:55:43;102504.27;;;13.22;68.82
60697;BME280;46536;54.376;19.858;2022-11-11T09:58:53;102510.85;;;13.24;68.84
60697;BME280;46536;54.376;19.858;2022-11-11T10:01:59;102520.45;;;13.24;68.84
60697;BME280;46536;54.376;19.858;2022-11-11T10:05:12;102528.67;;;13.23;68.76
60697;BME280;46536;54.376;19.858;2022-11-11T10:10:54;102521.13;;;13.25;68.87
60697;BME280;46536;54.376;19.858;2022-11-11T10:13:42;102523.39;;;13.25;68.90
60697;BME280;46536;54.376;19.858;2022-11-11T10:16:54;102533.73;;;13.22;68.97
60697;BME280;46536;54.376;19.858;2022-11-11T10:22:46;102527.86;;;13.17;69.45
60697;BME280;46536;54.376;19.858;2022-11-11T10:25:41;102534.16;;;13.16;69.65
60697;BME280;46536;54.376;19.858;2022-11-11T10:28:32;102527.72;;;13.15;69.62
60697;BME280;46536;54.376;19.858;2022-11-11T10:31:23;102519.05;;;13.13;69.77
60697;BME280;46536;54.376;19.858;2022-11-11T10:34:15;102528.98;;;13.14;69.84
60697;BME280;46536;54.376;19.858;2022-11-11T10:37:16;102525.80;;;13.16;69.74
60697;BME280;46536;54.376;19.858;2022-11-11T10:43:01;102521.95;;;13.16;69.64
60697;BME280;46536;54.376;19.858;2022-11-11T10:49:14;102518.27;;;13.20;69.49
60697;BME280;46536;54.376;19.858;2022-11-11T10:58:09;102519.21;;;13.34;69.30
60697;BME280;46536;54.376;19.858;2022-11-11T11:01:06;102521.61;;;13.37;69.29
60697;BME280;46536;54.376;19.858;2022-11-11T11:04:04;102516.98;;;13.42;69.28
60697;BME280;46536;54.376;19.858;2022-11-11T11:06:58;102513.91;;;13.46;69.10
60697;BME280;46536;54.376;19.858;2022-11-11T11:09:53;102511.95;;;13.48;69.02
60697;BME280;46536;54.376;19.858;2022-11-11T11:12:57;102512.91;;;13.52;68.95
60697;BME280;46536;54.376;19.858;2022-11-11T11:15:53;102513.60;;;13.53;68.94
60697;BME280;46536;54.376;19.858;2022-11-11T11:18:42;102520.33;;;13.57;68.94
60697;BME280;46536;54.376;19.858;2022-11-11T11:21:51;102523.09;;;13.59;68.67
60697;BME280;46536;54.376;19.858;2022-11-11T11:24:40;102517.04;;;13.56;68.64
60697;BME280;46536;54.376;19.858;2022-11-11T11:27:30;102526.06;;;13.58;68.75
60697;BME280;46536;54.376;19.858;2022-11-11T11:30:23;102519.75;;;13.60;68.67
60697;BME280;46536;54.376;19.858;2022-11-11T11:33:12;102513.98;;;13.61;68.68
60697;BME280;46536;54.376;19.858;2022-11-11T11:36:15;102501.05;;;13.60;68.61
60697;BME280;46536;54.376;19.858;2022-11-11T11:39:03;102500.98;;;13.56;68.66
60697;BME280;46536;54.376;19.858;2022-11-11T11:41:50;102501.37;;;13.53;68.61
60697;BME280;46536;54.376;19.858;2022-11-11T11:44:38;102505.06;;;13.51;68.74
60697;BME280;46536;54.376;19.858;2022-11-11T11:47:30;102519.52;;;13.54;68.88
60697;BME280;46536;54.376;19.858;2022-11-11T11:53:38;102521.66;;;13.60;68.71
60697;BME280;46536;54.376;19.858;2022-11-11T11:56:43;102514.14;;;13.61;68.61
60697;BME280;46536;54.376;19.858;2022-11-11T12:05:37;102520.48;;;13.58;68.51
60697;BME280;46536;54.376;19.858;2022-11-11T12:08:46;102520.02;;;13.56;68.49
60697;BME280;46536;54.376;19.858;2022-11-11T12:11:54;102518.98;;;13.55;68.56
60697;BME280;46536;54.376;19.858;2022-11-11T12:26:56;102522.49;;;13.54;68.49
60697;BME280;46536;54.376;19.858;2022-11-11T12:30:02;102509.75;;;13.54;68.53
60697;BME280;46536;54.376;19.858;2022-11-11T12:36:00;102518.11;;;13.55;68.38
60697;BME280;46536;54.376;19.858;2022-11-11T12:39:08;102522.33;;;13.53;68.38
60697;BME280;46536;54.376;19.858;2022-11-11T12:45:44;102529.05;;;13.48;68.57
60697;BME280;46536;54.376;19.858;2022-11-11T13:04:18;102546.73;;;13.46;68.76
60697;BME280;46536;54.376;19.858;2022-11-11T13:07:20;102544.98;;;13.46;68.73
60697;BME280;46536;54.376;19.858;2022-11-11T13:16:49;102547.80;;;13.45;68.65
60697;BME280;46536;54.376;19.858;2022-11-11T13:19:50;102546.99;;;13.42;68.71
60697;BME280;46536;54.376;19.858;2022-11-11T13:22:40;102557.12;;;13.41;68.77
60697;BME280;46536;54.376;19.858;2022-11-11T13:25:31;102558.34;;;13.41;68.67
60697;BME280;46536;54.376;19.858;2022-11-11T13:31:45;102554.13;;;13.43;68.79
60697;BME280;46536;54.376;19.858;2022-11-11T13:34:32;102561.44;;;13.44;68.71
60697;BME280;46536;54.376;19.858;2022-11-11T13:37:29;102562.13;;;13.44;68.69
60697;BME280;46536;54.376;19.858;2022-11-11T13:40:33;102569.80;;;13.44;68.67
60697;BME280;46536;54.376;19.858;2022-11-11T13:43:28;102571.30;;;13.40;68.67
60697;BME280;46536;54.376;19.858;2022-11-11T13:55:35;102563.27;;;13.20;69.54
60697;BME280;46536;54.376;19.858;2022-11-11T13:58:27;102561.56;;;13.16;69.90
60697;BME280;46536;54.376;19.858;2022-11-11T14:01:16;102551.89;;;13.11;69.96
60697;BME280;46536;54.376;19.858;2022-11-11T14:04:07;102548.64;;;13.07;70.19
60697;BME280;46536;54.376;19.858;2022-11-11T14:06:57;102546.43;;;13.04;70.30
60697;BME280;46536;54.376;19.858;2022-11-11T14:09:57;102551.87;;;13.02;70.44
60697;BME280;46536;54.376;19.858;2022-11-11T14:12:51;102555.05;;;12.98;70.60
60697;BME280;46536;54.376;19.858;2022-11-11T14:15:47;102564.05;;;12.92;70.80
60697;BME280;46536;54.376;19.858;2022-11-11T14:18:42;102564.86;;;12.87;70.96
60697;BME280;46536;54.376;19.858;2022-11-11T14:21:57;102562.48;;;12.83;71.21
60697;BME280;46536;54.376;19.858;2022-11-11T14:24:46;102564.45;;;12.80;71.32
60697;BME280;46536;54.376;19.858;2022-11-11T14:27:34;102567.82;;;12.76;71.42
60697;BME280;46536;54.376;19.858;2022-11-11T14:30:38;102570.69;;;12.72;71.68
60697;BME280;46536;54.376;19.858;2022-11-11T14:33:54;102579.95;;;12.71;71.89
60697;BME280;46536;54.376;19.858;2022-11-11T14:36:49;102585.22;;;12.66;72.07
60697;BME280;46536;54.376;19.858;2022-11-11T14:39:53;102584.92;;;12.63;72.16
60697;BME280;46536;54.376;19.858;2022-11-11T14:42:42;102585.80;;;12.63;72.25
60697;BME280;46536;54.376;19.858;2022-11-11T14:51:49;102579.29;;;12.56;72.36
60697;BME280;46536;54.376;19.858;2022-11-11T14:58:14;102578.89;;;12.47;72.65
60697;BME280;46536;54.376;19.858;2022-11-11T15:01:17;102588.05;;;12.41;72.92
60697;BME280;46536;54.376;19.858;2022-11-11T15:04:07;102594.23;;;12.35;73.02
60697;BME280;46536;54.376;19.858;2022-11-11T15:06:58;102598.63;;;12.31;73.17
60697;BME280;46536;54.376;19.858;2022-11-11T15:21:33;102611.80;;;12.24;73.42
60697;BME280;46536;54.376;19.858;2022-11-11T15:27:33;102607.83;;;12.22;73.47
60697;BME280;46536;54.376;19.858;2022-11-11T15:36:52;102607.39;;;12.28;73.47
60697;BME280;46536;54.376;19.858;2022-11-11T15:39:50;102600.64;;;12.25;73.46
60697;BME280;46536;54.376;19.858;2022-11-11T15:42:42;102603.06;;;12.26;73.56
60697;BME280;46536;54.376;19.858;2022-11-11T15:45:36;102595.23;;;12.25;73.52
60697;BME280;46536;54.376;19.858;2022-11-11T15:48:48;102593.66;;;12.26;73.55
60697;BME280;46536;54.376;19.858;2022-11-11T15:51:38;102582.14;;;12.27;73.55
60697;BME280;46536;54.376;19.858;2022-11-11T15:54:25;102580.04;;;12.28;73.54
60697;BME280;46536;54.376;19.858;2022-11-11T16:00:28;102599.00;;;12.29;73.71
60697;BME280;46536;54.376;19.858;2022-11-11T16:03:31;102598.45;;;12.31;73.63
60697;BME280;46536;54.376;19.858;2022-11-11T16:06:20;102601.95;;;12.31;73.52
60697;BME280;46536;54.376;19.858;2022-11-11T16:09:10;102606.81;;;12.32;73.53
60697;BME280;46536;54.376;19.858;2022-11-11T16:12:00;102607.67;;;12.34;73.46
60697;BME280;46536;54.376;19.858;2022-11-11T16:14:50;102605.03;;;12.35;73.47
60697;BME280;46536;54.376;19.858;2022-11-11T16:17:41;102596.61;;;12.39;73.40
60697;BME280;46536;54.376;19.858;2022-11-11T16:20:54;102596.42;;;12.40;73.31
60697;BME280;46536;54.376;19.858;2022-11-11T16:23:46;102601.65;;;12.40;73.34
60697;BME280;46536;54.376;19.858;2022-11-11T16:26:35;102605.09;;;12.43;73.26
60697;BME280;46536;54.376;19.858;2022-11-11T16:29:28;102605.94;;;12.45;73.27
60697;BME280;46536;54.376;19.858;2022-11-11T16:35:44;102607.79;;;12.51;73.14
60697;BME280;46536;54.376;19.858;2022-11-11T16:38:32;102613.67;;;12.53;73.03
60697;BME280;46536;54.376;19.858;2022-11-11T16:41:25;102618.91;;;12.53;73.05
60697;BME280;46536;54.376;19.858;2022-11-11T16:44:47;102618.02;;;12.55;72.98
60697;BME280;46536;54.376;19.858;2022-11-11T16:47:41;102624.79;;;12.56;72.92
60697;BME280;46536;54.376;19.858;2022-11-11T16:50:30;102628.24;;;12.58;72.84
60697;BME280;46536;54.376;19.858;2022-11-11T16:53:31;102632.08;;;12.57;72.86
60697;BME280;46536;54.376;19.858;2022-11-11T16:56:25;102632.43;;;12.58;72.85
60697;BME280;46536;54.376;19.858;2022-11-11T16:59:19;102632.41;;;12.59;72.82
60697;BME280;46536;54.376;19.858;2022-11-11T17:02:20;102634.85;;;12.58;72.74
60697;BME280;46536;54.376;19.858;2022-11-11T17:05:09;102631.02;;;12.59;72.76
60697;BME280;46536;54.376;19.858;2022-11-11T17:07:59;102634.64;;;12.61;72.73
60697;BME280;46536;54.376;19.858;2022-11-11T17:10:47;102639.98;;;12.65;72.70
60697;BME280;46536;54.376;19.858;2022-11-11T17:13:35;102635.77;;;12.66;72.62
60697;BME280;46536;54.376;19.858;2022-11-11T17:16:29;102635.59;;;12.69;72.63
60697;BME280;46536;54.376;19.858;2022-11-11T17:19:16;102644.48;;;12.69;72.62
60697;BME280;46536;54.376;19.858;2022-11-11T17:22:10;102648.95;;;12.73;72.52
60697;BME280;46536;54.376;19.858;2022-11-11T17:24:58;102647.02;;;12.74;72.50
60697;BME280;46536;54.376;19.858;2022-11-11T17:27:45;102643.65;;;12.77;72.48
60697;BME280;46536;54.376;19.858;2022-11-11T17:30:35;102649.31;;;12.82;72.47
60697;BME280;46536;54.376;19.858;2022-11-11T17:33:26;102652.39;;;12.87;72.47
60697;BME280;46536;54.376;19.858;2022-11-11T17:36:14;102651.96;;;12.93;72.20
60697;BME280;46536;54.376;19.858;2022-11-11T17:39:02;102652.28;;;12.94;72.22
60697;BME280;46536;54.376;19.858;2022-11-11T17:41:50;102645.46;;;12.95;72.08
60697;BME280;46536;54.376;19.858;2022-11-11T17:44:38;102644.41;;;12.95;72.03
60697;BME280;46536;54.376;19.858;2022-11-11T17:47:26;102645.82;;;12.95;72.03
60697;BME280;46536;54.376;19.858;2022-11-11T17:50:14;102647.58;;;12.94;72.04
60697;BME280;46536;54.376;19.858;2022-11-11T17:53:03;102654.68;;;12.97;72.02
60697;BME280;46536;54.376;19.858;2022-11-11T17:55:51;102650.82;;;12.98;72.01
60697;BME280;46536;54.376;19.858;2022-11-11T17:58:39;102650.43;;;13.01;71.91
60697;BME280;46536;54.376;19.858;2022-11-11T18:01:27;102654.27;;;13.00;71.88
60697;BME280;46536;54.376;19.858;2022-11-11T18:04:14;102661.95;;;13.00;71.83
60697;BME280;46536;54.376;19.858;2022-11-11T18:07:02;102659.15;;;13.00;71.81
60697;BME280;46536;54.376;19.858;2022-11-11T18:09:50;102659.69;;;13.00;71.76
60697;BME280;46536;54.376;19.858;2022-11-11T18:12:39;102655.52;;;12.99;71.79
60697;BME280;46536;54.376;19.858;2022-11-11T18:15:28;102647.84;;;12.99;71.81
60697;BME280;46536;54.376;19.858;2022-11-11T18:18:16;102650.61;;;13.00;71.77
60697;BME280;46536;54.376;19.858;2022-11-11T18:21:04;102658.27;;;13.02;71.85
60697;BME280;46536;54.376;19.858;2022-11-11T18:23:52;102662.91;;;13.07;71.73
60697;BME280;46536;54.376;19.858;2022-11-11T18:26:39;102663.98;;;13.15;71.68
60697;BME280;46536;54.376;19.858;2022-11-11T18:29:27;102663.96;;;13.18;71.51
60697;BME280;46536;54.376;19.858;2022-11-11T18:32:15;102661.85;;;13.18;71.55
60697;BME280;46536;54.376;19.858;2022-11-11T18:35:03;102658.02;;;13.17;71.32
60697;BME280;46536;54.376;19.858;2022-11-11T18:37:51;102649.19;;;13.13;71.35
60697;BME280;46536;54.376;19.858;2022-11-11T18:40:39;102652.73;;;13.10;71.47
60697;BME280;46536;54.376;19.858;2022-11-11T18:43:35;102660.23;;;13.11;71.57
60697;BME280;46536;54.376;19.858;2022-11-11T18:46:25;102660.79;;;13.09;71.52
60697;BME280;46536;54.376;19.858;2022-11-11T18:49:13;102663.55;;;13.10;71.56
60697;BME280;46536;54.376;19.858;2022-11-11T18:52:02;102659.14;;;13.12;71.61
60697;BME280;46536;54.376;19.858;2022-11-11T18:54:50;102664.31;;;13.18;71.57
60697;BME280;46536;54.376;19.858;2022-11-11T18:57:38;102670.86;;;13.24;71.47
60697;BME280;46536;54.376;19.858;2022-11-11T19:00:26;102669.41;;;13.27;71.36
60697;BME280;46536;54.376;19.858;2022-11-11T19:03:14;102674.45;;;13.29;71.35
60697;BME280;46536;54.376;19.858;2022-11-11T19:06:08;102683.27;;;13.32;71.31
60697;BME280;46536;54.376;19.858;2022-11-11T19:09:11;102687.41;;;13.37;71.34
60697;BME280;46536;54.376;19.858;2022-11-11T19:11:59;102686.84;;;13.40;71.22
60697;BME280;46536;54.376;19.858;2022-11-11T19:14:47;102692.73;;;13.43;71.18
60697;BME280;46536;54.376;19.858;2022-11-11T19:17:35;102692.38;;;13.43;71.10
60697;BME280;46536;54.376;19.858;2022-11-11T19:20:23;102695.16;;;13.43;71.21
60697;BME280;46536;54.376;19.858;2022-11-11T19:23:11;102697.09;;;13.42;71.29
60697;BME280;46536;54.376;19.858;2022-11-11T19:25:59;102695.70;;;13.42;71.34
60697;BME280;46536;54.376;19.858;2022-11-11T19:28:46;102694.80;;;13.44;71.39
60697;BME280;46536;54.376;19.858;2022-11-11T19:31:34;102691.64;;;13.45;71.45
60697;BME280;46536;54.376;19.858;2022-11-11T19:34:22;102698.61;;;13.45;71.43
60697;BME280;46536;54.376;19.858;2022-11-11T19:37:09;102696.16;;;13.45;71.50
60697;BME280;46536;54.376;19.858;2022-11-11T19:39:59;102703.95;;;13.49;71.53
60697;BME280;46536;54.376;19.858;2022-11-11T19:42:48;102705.86;;;13.50;71.56
60697;BME280;46536;54.376;19.858;2022-11-11T19:45:35;102706.17;;;13.51;71.61
60697;BME280;46536;54.376;19.858;2022-11-11T19:48:23;102708.94;;;13.54;71.42
60697;BME280;46536;54.376;19.858;2022-11-11T19:51:19;102709.63;;;13.55;71.45
60697;BME280;46536;54.376;19.858;2022-11-11T19:54:09;102708.06;;;13.54;71.53
60697;BME280;46536;54.376;19.858;2022-11-11T19:56:58;102708.02;;;13.57;71.54
60697;BME280;46536;54.376;19.858;2022-11-11T19:59:45;102711.99;;;13.59;71.52
60697;BME280;46536;54.376;19.858;2022-11-11T20:02:33;102715.65;;;13.60;71.47
60697;BME280;46536;54.376;19.858;2022-11-11T20:05:21;102720.35;;;13.61;71.48
60697;BME280;46536;54.376;19.858;2022-11-11T20:08:13;102715.61;;;13.62;71.42
60697;BME280;46536;54.376;19.858;2022-11-11T20:11:04;102721.19;;;13.62;71.42
60697;BME280;46536;54.376;19.858;2022-11-11T20:13:54;102716.23;;;13.65;71.53
60697;BME280;46536;54.376;19.858;2022-11-11T20:16:45;102720.75;;;13.67;71.31
60697;BME280;46536;54.376;19.858;2022-11-11T20:19:33;102721.23;;;13.70;71.28
60697;BME280;46536;54.376;19.858;2022-11-11T20:22:22;102720.69;;;13.71;71.21
60697;BME280;46536;54.376;19.858;2022-11-11T20:25:10;102719.12;;;13.71;71.19
60697;BME280;46536;54.376;19.858;2022-11-11T20:28:00;102719.30;;;13.71;71.22
60697;BME280;46536;54.376;19.858;2022-11-11T20:30:48;102719.12;;;13.71;71.17
60697;BME280;46536;54.376;19.858;2022-11-11T20:33:36;102722.44;;;13.70;71.17
60697;BME280;46536;54.376;19.858;2022-11-11T20:36:24;102724.53;;;13.71;71.17
60697;BME280;46536;54.376;19.858;2022-11-11T20:39:11;102724.83;;;13.74;71.19
60697;BME280;46536;54.376;19.858;2022-11-11T20:41:59;102719.94;;;13.75;71.04
60697;BME280;46536;54.376;19.858;2022-11-11T20:44:46;102722.39;;;13.74;71.09
60697;BME280;46536;54.376;19.858;2022-11-11T20:47:34;102722.73;;;13.74;71.13
60697;BME280;46536;54.376;19.858;2022-11-11T20:50:21;102721.71;;;13.73;70.98
60697;BME280;46536;54.376;19.858;2022-11-11T20:53:09;102721.20;;;13.73;71.12
60697;BME280;46536;54.376;19.858;2022-11-11T20:56:04;102721.73;;;13.72;71.14
60697;BME280;46536;54.376;19.858;2022-11-11T20:58:54;102721.20;;;13.72;71.16
60697;BME280;46536;54.376;19.858;2022-11-11T21:01:49;102718.90;;;13.74;71.14
60697;BME280;46536;54.376;19.858;2022-11-11T21:04:39;102714.52;;;13.75;71.15
60697;BME280;46536;54.376;19.858;2022-11-11T21:07:29;102710.17;;;13.74;71.11
60697;BME280;46536;54.376;19.858;2022-11-11T21:10:20;102710.65;;;13.76;71.10
60697;BME280;46536;54.376;19.858;2022-11-11T21:13:08;102717.27;;;13.76;71.13
60697;BME280;46536;54.376;19.858;2022-11-11T21:16:18;102715.71;;;13.76;71.07
60697;BME280;46536;54.376;19.858;2022-11-11T21:19:13;102719.17;;;13.77;71.00
60697;BME280;46536;54.376;19.858;2022-11-11T21:22:01;102721.27;;;13.78;71.08
60697;BME280;46536;54.376;19.858;2022-11-11T21:24:55;102721.79;;;13.78;71.04
60697;BME280;46536;54.376;19.858;2022-11-11T21:27:43;102729.45;;;13.79;71.06
60697;BME280;46536;54.376;19.858;2022-11-11T21:30:31;102727.38;;;13.78;70.91
60697;BME280;46536;54.376;19.858;2022-11-11T21:33:19;102727.02;;;13.78;70.94
60697;BME280;46536;54.376;19.858;2022-11-11T21:36:09;102733.56;;;13.83;70.91
60697;BME280;46536;54.376;19.858;2022-11-11T21:38:58;102731.56;;;13.87;70.88
60697;BME280;46536;54.376;19.858;2022-11-11T21:41:49;102725.94;;;13.90;70.69
60697;BME280;46536;54.376;19.858;2022-11-11T21:44:37;102729.02;;;13.93;70.72
60697;BME280;46536;54.376;19.858;2022-11-11T21:47:25;102726.34;;;13.97;70.58
60697;BME280;46536;54.376;19.858;2022-11-11T21:50:13;102733.64;;;13.99;70.51
60697;BME280;46536;54.376;19.858;2022-11-11T21:53:00;102735.02;;;14.00;70.39
60697;BME280;46536;54.376;19.858;2022-11-11T21:55:48;102733.13;;;13.98;70.36
60697;BME280;46536;54.376;19.858;2022-11-11T21:58:36;102736.62;;;13.98;70.32
60697;BME280;46536;54.376;19.858;2022-11-11T22:01:25;102737.77;;;14.01;70.28
60697;BME280;46536;54.376;19.858;2022-11-11T22:04:16;102737.60;;;14.02;70.19
60697;BME280;46536;54.376;19.858;2022-11-11T22:07:03;102744.73;;;14.03;70.10
60697;BME280;46536;54.376;19.858;2022-11-11T22:09:50;102742.13;;;14.02;69.98
60697;BME280;46536;54.376;19.858;2022-11-11T22:12:37;102747.04;;;14.01;70.11
60697;BME280;46536;54.376;19.858;2022-11-11T22:15:24;102748.45;;;14.01;70.00
60697;BME280;46536;54.376;19.858;2022-11-11T22:18:12;102750.37;;;14.00;70.02
60697;BME280;46536;54.376;19.858;2022-11-11T22:21:06;102757.52;;;14.01;70.01
60697;BME280;46536;54.376;19.858;2022-11-11T22:23:56;102750.71;;;14.01;69.99
60697;BME280;46536;54.376;19.858;2022-11-11T22:26:43;102758.40;;;14.01;69.91
60697;BME280;46536;54.376;19.858;2022-11-11T22:29:31;102752.10;;;14.01;69.93
60697;BME280;46536;54.376;19.858;2022-11-11T22:32:18;102749.68;;;14.00;69.76
60697;BME280;46536;54.376;19.858;2022-11-11T22:35:07;102749.20;;;13.98;69.87
60697;BME280;46536;54.376;19.858;2022-11-11T22:37:54;102755.86;;;13.96;69.82
60697;BME280;46536;54.376;19.858;2022-11-11T22:40:41;102762.38;;;13.94;69.90
60697;BME280;46536;54.376;19.858;2022-11-11T22:43:36;102764.45;;;13.96;69.89
60697;BME280;46536;54.376;19.858;2022-11-11T22:46:44;102762.31;;;13.97;69.80
60697;BME280;46536;54.376;19.858;2022-11-11T22:49:32;102761.74;;;14.00;69.78
60697;BME280;46536;54.376;19.858;2022-11-11T22:52:20;102760.89;;;13.99;69.75
60697;BME280;46536;54.376;19.858;2022-11-11T22:55:09;102756.67;;;14.00;69.71
60697;BME280;46536;54.376;19.858;2022-11-11T22:57:57;102759.61;;;14.01;69.78
60697;BME280;46536;54.376;19.858;2022-11-11T23:00:43;102759.23;;;14.03;69.67
60697;BME280;46536;54.376;19.858;2022-11-11T23:03:32;102763.94;;;14.04;69.61
60697;BME280;46536;54.376;19.858;2022-11-11T23:06:28;102762.20;;;14.03;69.62
60697;BME280;46536;54.376;19.858;2022-11-11T23:09:16;102760.95;;;14.06;69.54
60697;BME280;46536;54.376;19.858;2022-11-11T23:12:03;102758.16;;;14.05;69.39
60697;BME280;46536;54.376;19.858;2022-11-11T23:14:51;102758.89;;;14.02;69.40
60697;BME280;46536;54.376;19.858;2022-11-11T23:17:38;102756.02;;;13.98;69.35